Aérodrome :
LOGIN :

S'inscrire | Disclaimer

   EN    FR    IT 

 










Légende :    VFR   VFR Marginal   IFR   IFR Intensif   IFR Très Intensif
Visi : 
Plafond : 
>= 8 km
>= 3000ft
5 à 8 km
1000 à 3000 ft
1500m à 5 km
500 à 1000 ft
800 à 1500m
200 à 500 ft
< 800m
< 200 ft
Symboles :   Orages  Brouillard  Fortes neiges  Fortes précipitations  Vent > 20 kt
SIGMETs :   Divers  Orages  Givrage  Turbulence  Onde Orograph.  Cendres Volcan.






- Altitude de l'aérodrome : 256 ft
- Code IATA : CFR


LFRK - Caen

DERNIER METAR :
  • 210200Z AUTO 31004KT 290V350 9999 SCT020 SCT054 OVC086 10/08 Q1013

METARs EXPIRÉS :
  • 210130Z AUTO 31003KT 280V350 9999 ///TCU 10/08 Q1012
  • 210100Z AUTO 33005KT 300V360 9999 -DZ BKN049/// BKN088/// OVC100/// ///TCU 10/08 Q1012
  • 210030Z AUTO 01004KT 330V040 9999 -RA NSC 10/08 Q1012
  • 210000Z AUTO 02008KT 9999 -RA FEW045/// BKN060/// BKN072/// ///TCU 11/09 Q1012
  • 202330Z AUTO 02006KT 340V060 9999 -RA BKN014/// BKN020/// BKN034/// ///TCU 11/10 Q1012

Prévision TAF périmée.
Météo : +33 2 31 26 68 11



MET'MAP, la Météo Aéronautique d'un coup d'oeil ! - Copyright ORBIFLY Décembre 2007 - Disclaimer

ORBIFLY MET'MAP TEAM :

Programmation & Développement : Alexandra Zaïnal
Conception & Développement : Baudouin d'Aumeries
Co-Programmation & Développement : Marc-Olivier Méhu
Soutien technique & logistique : Manuel Goepfert

Contact : metmap@orbifly.com




SOURCES & CREDITS :

   NOAA